sensor_id;sensor_type;location;lat;lon;timestamp;P1;durP1;ratioP1;P2;durP2;ratioP2
29362;SDS011;16349;53.672;10.014;2023-04-24T00:00:46;5.13;;;4.73;;
29362;SDS011;16349;53.672;10.014;2023-04-24T00:03:14;5.10;;;4.70;;
29362;SDS011;16349;53.672;10.014;2023-04-24T00:05:42;5.07;;;4.30;;
29362;SDS011;16349;53.672;10.014;2023-04-24T00:08:09;5.00;;;4.60;;
29362;SDS011;16349;53.672;10.014;2023-04-24T00:10:35;5.53;;;5.13;;
29362;SDS011;16349;53.672;10.014;2023-04-24T00:13:05;5.10;;;4.70;;
29362;SDS011;16349;53.672;10.014;2023-04-24T00:15:32;5.47;;;4.90;;
29362;SDS011;16349;53.672;10.014;2023-04-24T00:17:59;7.50;;;4.50;;
29362;SDS011;16349;53.672;10.014;2023-04-24T00:20:28;5.97;;;5.40;;
29362;SDS011;16349;53.672;10.014;2023-04-24T00:22:58;5.10;;;4.70;;
29362;SDS011;16349;53.672;10.014;2023-04-24T00:25:25;5.50;;;5.00;;
29362;SDS011;16349;53.672;10.014;2023-04-24T00:27:52;5.07;;;4.70;;
29362;SDS011;16349;53.672;10.014;2023-04-24T00:30:19;5.50;;;4.97;;
29362;SDS011;16349;53.672;10.014;2023-04-24T00:32:46;5.13;;;4.70;;
29362;SDS011;16349;53.672;10.014;2023-04-24T00:35:13;5.50;;;5.03;;
29362;SDS011;16349;53.672;10.014;2023-04-24T00:37:41;5.80;;;5.20;;
29362;SDS011;16349;53.672;10.014;2023-04-24T00:40:10;6.20;;;5.17;;
29362;SDS011;16349;53.672;10.014;2023-04-24T00:42:37;5.50;;;4.83;;
29362;SDS011;16349;53.672;10.014;2023-04-24T00:45:06;7.80;;;5.23;;
29362;SDS011;16349;53.672;10.014;2023-04-24T00:47:33;4.83;;;4.53;;
29362;SDS011;16349;53.672;10.014;2023-04-24T00:50:01;5.70;;;5.20;;
29362;SDS011;16349;53.672;10.014;2023-04-24T00:52:28;5.47;;;4.97;;
29362;SDS011;16349;53.672;10.014;2023-04-24T00:54:57;5.40;;;4.90;;
29362;SDS011;16349;53.672;10.014;2023-04-24T00:57:25;5.53;;;5.00;;
29362;SDS011;16349;53.672;10.014;2023-04-24T00:59:52;5.57;;;5.07;;
29362;SDS011;16349;53.672;10.014;2023-04-24T01:02:20;5.83;;;5.33;;
29362;SDS011;16349;53.672;10.014;2023-04-24T01:04:50;5.57;;;5.13;;
29362;SDS011;16349;53.672;10.014;2023-04-24T01:07:18;5.20;;;4.70;;
29362;SDS011;16349;53.672;10.014;2023-04-24T01:09:46;5.70;;;5.20;;
29362;SDS011;16349;53.672;10.014;2023-04-24T01:12:17;5.67;;;5.27;;
29362;SDS011;16349;53.672;10.014;2023-04-24T01:14:46;6.30;;;5.70;;
29362;SDS011;16349;53.672;10.014;2023-04-24T01:17:14;5.70;;;5.20;;
29362;SDS011;16349;53.672;10.014;2023-04-24T01:19:42;5.40;;;5.00;;
29362;SDS011;16349;53.672;10.014;2023-04-24T01:22:11;5.53;;;5.03;;
29362;SDS011;16349;53.672;10.014;2023-04-24T01:24:40;5.60;;;5.10;;
29362;SDS011;16349;53.672;10.014;2023-04-24T01:27:07;5.60;;;5.03;;
29362;SDS011;16349;53.672;10.014;2023-04-24T01:29:36;5.63;;;4.70;;
29362;SDS011;16349;53.672;10.014;2023-04-24T01:32:03;5.43;;;4.87;;
29362;SDS011;16349;53.672;10.014;2023-04-24T01:34:31;6.07;;;5.27;;
29362;SDS011;16349;53.672;10.014;2023-04-24T01:36:58;5.33;;;4.93;;
29362;SDS011;16349;53.672;10.014;2023-04-24T01:39:27;5.33;;;4.83;;
29362;SDS011;16349;53.672;10.014;2023-04-24T01:41:54;5.00;;;4.60;;
29362;SDS011;16349;53.672;10.014;2023-04-24T01:44:22;5.40;;;4.97;;
29362;SDS011;16349;53.672;10.014;2023-04-24T01:46:49;5.33;;;4.87;;
29362;SDS011;16349;53.672;10.014;2023-04-24T01:49:16;5.07;;;4.67;;
29362;SDS011;16349;53.672;10.014;2023-04-24T01:51:43;5.60;;;5.10;;
29362;SDS011;16349;53.672;10.014;2023-04-24T01:54:11;5.40;;;5.00;;
29362;SDS011;16349;53.672;10.014;2023-04-24T01:56:41;5.17;;;4.77;;
29362;SDS011;16349;53.672;10.014;2023-04-24T01:59:09;4.67;;;4.37;;
29362;SDS011;16349;53.672;10.014;2023-04-24T02:01:37;5.00;;;4.50;;
29362;SDS011;16349;53.672;10.014;2023-04-24T02:04:05;5.10;;;4.60;;
29362;SDS011;16349;53.672;10.014;2023-04-24T02:06:34;4.73;;;4.33;;
29362;SDS011;16349;53.672;10.014;2023-04-24T02:09:01;5.00;;;4.50;;
29362;SDS011;16349;53.672;10.014;2023-04-24T02:11:29;4.00;;;3.70;;
29362;SDS011;16349;53.672;10.014;2023-04-24T02:13:57;3.67;;;3.37;;
29362;SDS011;16349;53.672;10.014;2023-04-24T02:16:25;19.53;;;3.80;;
29362;SDS011;16349;53.672;10.014;2023-04-24T02:18:52;3.93;;;3.40;;
29362;SDS011;16349;53.672;10.014;2023-04-24T02:21:19;3.60;;;3.03;;
29362;SDS011;16349;53.672;10.014;2023-04-24T02:23:46;2.90;;;2.67;;
29362;SDS011;16349;53.672;10.014;2023-04-24T02:26:12;2.73;;;2.53;;
29362;SDS011;16349;53.672;10.014;2023-04-24T02:28:40;2.60;;;2.40;;
29362;SDS011;16349;53.672;10.014;2023-04-24T02:31:08;2.67;;;2.17;;
29362;SDS011;16349;53.672;10.014;2023-04-24T02:33:35;2.20;;;2.00;;
29362;SDS011;16349;53.672;10.014;2023-04-24T02:36:02;2.37;;;1.97;;
29362;SDS011;16349;53.672;10.014;2023-04-24T02:38:29;3.90;;;1.97;;
29362;SDS011;16349;53.672;10.014;2023-04-24T02:40:56;1.77;;;1.67;;
29362;SDS011;16349;53.672;10.014;2023-04-24T02:43:25;2.33;;;1.77;;
29362;SDS011;16349;53.672;10.014;2023-04-24T02:45:52;1.80;;;1.70;;
29362;SDS011;16349;53.672;10.014;2023-04-24T02:48:42;1.70;;;1.60;;
29362;SDS011;16349;53.672;10.014;2023-04-24T02:51:09;3.13;;;1.50;;
29362;SDS011;16349;53.672;10.014;2023-04-24T02:53:36;2.17;;;1.83;;
29362;SDS011;16349;53.672;10.014;2023-04-24T02:56:03;2.00;;;1.80;;
29362;SDS011;16349;53.672;10.014;2023-04-24T02:58:31;2.30;;;1.93;;
29362;SDS011;16349;53.672;10.014;2023-04-24T03:00:58;5.83;;;2.10;;
29362;SDS011;16349;53.672;10.014;2023-04-24T03:03:25;2.50;;;2.27;;
29362;SDS011;16349;53.672;10.014;2023-04-24T03:05:53;2.40;;;2.20;;
29362;SDS011;16349;53.672;10.014;2023-04-24T03:08:20;2.10;;;2.00;;
29362;SDS011;16349;53.672;10.014;2023-04-24T03:10:47;3.20;;;2.10;;
29362;SDS011;16349;53.672;10.014;2023-04-24T03:13:15;2.23;;;2.00;;
29362;SDS011;16349;53.672;10.014;2023-04-24T03:15:42;2.13;;;2.00;;
29362;SDS011;16349;53.672;10.014;2023-04-24T03:18:10;2.60;;;2.40;;
29362;SDS011;16349;53.672;10.014;2023-04-24T03:20:37;1.93;;;1.83;;
29362;SDS011;16349;53.672;10.014;2023-04-24T03:23:05;3.97;;;2.30;;
29362;SDS011;16349;53.672;10.014;2023-04-24T03:25:32;2.53;;;2.33;;
29362;SDS011;16349;53.672;10.014;2023-04-24T03:28:00;2.60;;;2.40;;
29362;SDS011;16349;53.672;10.014;2023-04-24T03:30:50;1.90;;;1.80;;
29362;SDS011;16349;53.672;10.014;2023-04-24T03:33:19;2.03;;;1.93;;
29362;SDS011;16349;53.672;10.014;2023-04-24T03:35:58;2.27;;;2.13;;
29362;SDS011;16349;53.672;10.014;2023-04-24T03:38:28;1.70;;;1.60;;
29362;SDS011;16349;53.672;10.014;2023-04-24T03:41:14;1.70;;;1.60;;
29362;SDS011;16349;53.672;10.014;2023-04-24T03:43:48;3.80;;;1.60;;
29362;SDS011;16349;53.672;10.014;2023-04-24T03:46:15;1.70;;;1.60;;
29362;SDS011;16349;53.672;10.014;2023-04-24T03:49:01;1.83;;;1.73;;
29362;SDS011;16349;53.672;10.014;2023-04-24T03:51:32;1.90;;;1.80;;
29362;SDS011;16349;53.672;10.014;2023-04-24T03:54:10;1.67;;;1.60;;
29362;SDS011;16349;53.672;10.014;2023-04-24T03:56:38;1.87;;;1.77;;
29362;SDS011;16349;53.672;10.014;2023-04-24T03:59:06;3.03;;;2.30;;
29362;SDS011;16349;53.672;10.014;2023-04-24T04:01:34;2.63;;;2.00;;
29362;SDS011;16349;53.672;10.014;2023-04-24T04:04:12;2.13;;;2.03;;
29362;SDS011;16349;53.672;10.014;2023-04-24T04:06:40;2.07;;;1.90;;
29362;SDS011;16349;53.672;10.014;2023-04-24T04:09:09;2.60;;;1.90;;
29362;SDS011;16349;53.672;10.014;2023-04-24T04:11:36;1.90;;;1.80;;
29362;SDS011;16349;53.672;10.014;2023-04-24T04:14:04;2.63;;;2.20;;
29362;SDS011;16349;53.672;10.014;2023-04-24T04:16:33;1.83;;;1.73;;
29362;SDS011;16349;53.672;10.014;2023-04-24T04:19:02;2.33;;;2.20;;
29362;SDS011;16349;53.672;10.014;2023-04-24T04:21:29;2.77;;;2.30;;
29362;SDS011;16349;53.672;10.014;2023-04-24T04:24:08;2.30;;;2.10;;
29362;SDS011;16349;53.672;10.014;2023-04-24T04:26:40;2.10;;;1.93;;
29362;SDS011;16349;53.672;10.014;2023-04-24T04:29:19;3.07;;;2.77;;
29362;SDS011;16349;53.672;10.014;2023-04-24T04:31:49;1.60;;;1.50;;
29362;SDS011;16349;53.672;10.014;2023-04-24T04:34:16;3.50;;;2.70;;
29362;SDS011;16349;53.672;10.014;2023-04-24T04:36:44;2.07;;;1.73;;
29362;SDS011;16349;53.672;10.014;2023-04-24T04:39:32;2.60;;;2.13;;
29362;SDS011;16349;53.672;10.014;2023-04-24T04:42:03;3.03;;;1.70;;
29362;SDS011;16349;53.672;10.014;2023-04-24T04:44:38;2.83;;;1.77;;
29362;SDS011;16349;53.672;10.014;2023-04-24T04:47:06;1.57;;;1.40;;
29362;SDS011;16349;53.672;10.014;2023-04-24T04:49:35;1.97;;;1.33;;
29362;SDS011;16349;53.672;10.014;2023-04-24T04:52:05;2.37;;;1.67;;
29362;SDS011;16349;53.672;10.014;2023-04-24T04:54:33;1.57;;;1.30;;
29362;SDS011;16349;53.672;10.014;2023-04-24T04:57:00;1.47;;;1.37;;
29362;SDS011;16349;53.672;10.014;2023-04-24T04:59:46;1.80;;;1.57;;
29362;SDS011;16349;53.672;10.014;2023-04-24T05:02:22;1.70;;;1.60;;
29362;SDS011;16349;53.672;10.014;2023-04-24T05:04:49;2.27;;;2.07;;
29362;SDS011;16349;53.672;10.014;2023-04-24T05:07:16;2.00;;;1.50;;
29362;SDS011;16349;53.672;10.014;2023-04-24T05:09:50;1.93;;;1.67;;
29362;SDS011;16349;53.672;10.014;2023-04-24T05:12:18;2.27;;;1.57;;
29362;SDS011;16349;53.672;10.014;2023-04-24T05:14:50;2.30;;;1.50;;
29362;SDS011;16349;53.672;10.014;2023-04-24T05:17:17;2.13;;;1.70;;
29362;SDS011;16349;53.672;10.014;2023-04-24T05:19:44;1.40;;;1.30;;
29362;SDS011;16349;53.672;10.014;2023-04-24T05:22:13;1.70;;;1.33;;
29362;SDS011;16349;53.672;10.014;2023-04-24T05:24:47;1.10;;;1.00;;
29362;SDS011;16349;53.672;10.014;2023-04-24T05:27:31;1.50;;;1.40;;
29362;SDS011;16349;53.672;10.014;2023-04-24T05:29:58;1.53;;;1.43;;
29362;SDS011;16349;53.672;10.014;2023-04-24T05:32:25;1.10;;;1.10;;
29362;SDS011;16349;53.672;10.014;2023-04-24T05:34:54;2.87;;;1.10;;
29362;SDS011;16349;53.672;10.014;2023-04-24T05:37:21;2.27;;;1.50;;
29362;SDS011;16349;53.672;10.014;2023-04-24T05:39:48;1.63;;;1.30;;
29362;SDS011;16349;53.672;10.014;2023-04-24T05:42:15;1.20;;;1.10;;
29362;SDS011;16349;53.672;10.014;2023-04-24T05:44:44;1.13;;;1.10;;
29362;SDS011;16349;53.672;10.014;2023-04-24T05:47:11;2.73;;;1.10;;
29362;SDS011;16349;53.672;10.014;2023-04-24T05:49:38;1.90;;;1.80;;
29362;SDS011;16349;53.672;10.014;2023-04-24T05:52:09;1.10;;;1.00;;
29362;SDS011;16349;53.672;10.014;2023-04-24T05:54:37;2.47;;;1.13;;
29362;SDS011;16349;53.672;10.014;2023-04-24T05:57:04;1.20;;;1.10;;
29362;SDS011;16349;53.672;10.014;2023-04-24T05:59:54;1.23;;;1.10;;
29362;SDS011;16349;53.672;10.014;2023-04-24T06:02:21;1.60;;;1.50;;
29362;SDS011;16349;53.672;10.014;2023-04-24T06:04:48;1.60;;;1.40;;
29362;SDS011;16349;53.672;10.014;2023-04-24T06:07:16;2.00;;;1.20;;
29362;SDS011;16349;53.672;10.014;2023-04-24T06:09:43;1.37;;;1.27;;
29362;SDS011;16349;53.672;10.014;2023-04-24T06:12:11;2.20;;;1.93;;
29362;SDS011;16349;53.672;10.014;2023-04-24T06:14:55;1.40;;;1.30;;
29362;SDS011;16349;53.672;10.014;2023-04-24T06:17:48;2.47;;;1.53;;
29362;SDS011;16349;53.672;10.014;2023-04-24T06:20:16;2.10;;;1.87;;
29362;SDS011;16349;53.672;10.014;2023-04-24T06:22:44;1.57;;;1.47;;
29362;SDS011;16349;53.672;10.014;2023-04-24T06:25:11;8.60;;;2.97;;
29362;SDS011;16349;53.672;10.014;2023-04-24T06:27:40;2.17;;;1.60;;
29362;SDS011;16349;53.672;10.014;2023-04-24T06:30:10;1.90;;;1.80;;
29362;SDS011;16349;53.672;10.014;2023-04-24T06:32:37;1.33;;;1.23;;
29362;SDS011;16349;53.672;10.014;2023-04-24T06:35:06;1.47;;;1.37;;
29362;SDS011;16349;53.672;10.014;2023-04-24T06:37:37;2.23;;;1.43;;
29362;SDS011;16349;53.672;10.014;2023-04-24T06:40:05;1.83;;;1.67;;
29362;SDS011;16349;53.672;10.014;2023-04-24T06:42:34;1.10;;;1.00;;
29362;SDS011;16349;53.672;10.014;2023-04-24T06:45:02;1.17;;;1.07;;
29362;SDS011;16349;53.672;10.014;2023-04-24T06:47:31;1.23;;;1.13;;
29362;SDS011;16349;53.672;10.014;2023-04-24T06:49:58;1.23;;;1.13;;
29362;SDS011;16349;53.672;10.014;2023-04-24T06:52:26;1.10;;;1.07;;
29362;SDS011;16349;53.672;10.014;2023-04-24T06:54:52;1.80;;;1.40;;
29362;SDS011;16349;53.672;10.014;2023-04-24T06:57:28;2.33;;;1.33;;
29362;SDS011;16349;53.672;10.014;2023-04-24T06:59:55;3.73;;;1.23;;
29362;SDS011;16349;53.672;10.014;2023-04-24T07:02:24;1.17;;;1.13;;
29362;SDS011;16349;53.672;10.014;2023-04-24T07:04:52;1.40;;;1.30;;
29362;SDS011;16349;53.672;10.014;2023-04-24T07:07:19;1.37;;;1.27;;
29362;SDS011;16349;53.672;10.014;2023-04-24T07:09:46;1.80;;;1.23;;
29362;SDS011;16349;53.672;10.014;2023-04-24T07:12:13;1.33;;;1.33;;
29362;SDS011;16349;53.672;10.014;2023-04-24T07:14:43;1.70;;;1.60;;
29362;SDS011;16349;53.672;10.014;2023-04-24T07:17:10;1.70;;;1.60;;
29362;SDS011;16349;53.672;10.014;2023-04-24T07:19:39;2.43;;;2.13;;
29362;SDS011;16349;53.672;10.014;2023-04-24T07:22:07;1.70;;;1.60;;
29362;SDS011;16349;53.672;10.014;2023-04-24T07:24:36;1.80;;;1.70;;
29362;SDS011;16349;53.672;10.014;2023-04-24T07:27:04;2.07;;;1.97;;
29362;SDS011;16349;53.672;10.014;2023-04-24T07:29:31;1.77;;;1.67;;
29362;SDS011;16349;53.672;10.014;2023-04-24T07:31:58;2.17;;;1.97;;
29362;SDS011;16349;53.672;10.014;2023-04-24T07:34:24;3.87;;;2.50;;
29362;SDS011;16349;53.672;10.014;2023-04-24T07:36:51;2.43;;;2.00;;
29362;SDS011;16349;53.672;10.014;2023-04-24T07:39:19;2.57;;;2.37;;
29362;SDS011;16349;53.672;10.014;2023-04-24T07:41:46;2.60;;;2.13;;
29362;SDS011;16349;53.672;10.014;2023-04-24T07:44:13;2.40;;;2.20;;
29362;SDS011;16349;53.672;10.014;2023-04-24T07:46:39;2.90;;;2.70;;
29362;SDS011;16349;53.672;10.014;2023-04-24T07:49:06;2.50;;;1.83;;
29362;SDS011;16349;53.672;10.014;2023-04-24T07:51:33;2.70;;;2.50;;
29362;SDS011;16349;53.672;10.014;2023-04-24T07:54:03;3.17;;;2.87;;
29362;SDS011;16349;53.672;10.014;2023-04-24T07:56:31;3.17;;;2.97;;
29362;SDS011;16349;53.672;10.014;2023-04-24T07:58:58;3.13;;;2.60;;
29362;SDS011;16349;53.672;10.014;2023-04-24T08:01:26;3.33;;;2.80;;
29362;SDS011;16349;53.672;10.014;2023-04-24T08:03:53;4.20;;;2.57;;
29362;SDS011;16349;53.672;10.014;2023-04-24T08:06:19;3.27;;;3.07;;
29362;SDS011;16349;53.672;10.014;2023-04-24T08:08:46;3.00;;;2.83;;
29362;SDS011;16349;53.672;10.014;2023-04-24T08:11:13;3.20;;;3.00;;
29362;SDS011;16349;53.672;10.014;2023-04-24T08:13:41;3.43;;;3.13;;
29362;SDS011;16349;53.672;10.014;2023-04-24T08:16:08;4.07;;;3.77;;
29362;SDS011;16349;53.672;10.014;2023-04-24T08:18:35;3.80;;;3.47;;
29362;SDS011;16349;53.672;10.014;2023-04-24T08:21:02;3.47;;;3.20;;
29362;SDS011;16349;53.672;10.014;2023-04-24T08:23:29;3.13;;;2.93;;
29362;SDS011;16349;53.672;10.014;2023-04-24T08:25:55;3.77;;;3.20;;
29362;SDS011;16349;53.672;10.014;2023-04-24T08:28:22;3.33;;;3.10;;
29362;SDS011;16349;53.672;10.014;2023-04-24T08:30:51;3.67;;;3.37;;
29362;SDS011;16349;53.672;10.014;2023-04-24T08:33:19;3.87;;;3.40;;
29362;SDS011;16349;53.672;10.014;2023-04-24T08:35:46;3.63;;;3.33;;
29362;SDS011;16349;53.672;10.014;2023-04-24T08:38:12;3.37;;;3.17;;
29362;SDS011;16349;53.672;10.014;2023-04-24T08:40:39;3.90;;;3.23;;
29362;SDS011;16349;53.672;10.014;2023-04-24T08:43:07;3.63;;;3.33;;
29362;SDS011;16349;53.672;10.014;2023-04-24T08:45:34;3.80;;;3.50;;
29362;SDS011;16349;53.672;10.014;2023-04-24T08:48:02;3.73;;;3.43;;
29362;SDS011;16349;53.672;10.014;2023-04-24T08:50:32;4.30;;;3.93;;
29362;SDS011;16349;53.672;10.014;2023-04-24T08:52:59;3.50;;;3.20;;
29362;SDS011;16349;53.672;10.014;2023-04-24T08:55:27;4.40;;;3.50;;
29362;SDS011;16349;53.672;10.014;2023-04-24T08:57:56;4.43;;;4.07;;
29362;SDS011;16349;53.672;10.014;2023-04-24T09:00:24;3.57;;;3.37;;
29362;SDS011;16349;53.672;10.014;2023-04-24T09:02:53;4.23;;;3.90;;
29362;SDS011;16349;53.672;10.014;2023-04-24T09:05:22;5.00;;;3.83;;
29362;SDS011;16349;53.672;10.014;2023-04-24T09:07:50;4.07;;;3.77;;
29362;SDS011;16349;53.672;10.014;2023-04-24T09:10:20;4.73;;;4.33;;
29362;SDS011;16349;53.672;10.014;2023-04-24T09:12:48;4.60;;;4.20;;
29362;SDS011;16349;53.672;10.014;2023-04-24T09:15:17;4.63;;;4.20;;
29362;SDS011;16349;53.672;10.014;2023-04-24T09:17:45;4.80;;;4.50;;
29362;SDS011;16349;53.672;10.014;2023-04-24T09:20:13;5.20;;;4.70;;
29362;SDS011;16349;53.672;10.014;2023-04-24T09:22:41;4.80;;;4.40;;
29362;SDS011;16349;53.672;10.014;2023-04-24T09:25:09;6.07;;;5.27;;
29362;SDS011;16349;53.672;10.014;2023-04-24T09:27:41;5.37;;;4.97;;
29362;SDS011;16349;53.672;10.014;2023-04-24T09:30:10;5.47;;;4.97;;
29362;SDS011;16349;53.672;10.014;2023-04-24T09:32:38;5.37;;;4.87;;
29362;SDS011;16349;53.672;10.014;2023-04-24T09:35:06;5.93;;;5.20;;
29362;SDS011;16349;53.672;10.014;2023-04-24T09:37:35;5.10;;;4.60;;
29362;SDS011;16349;53.672;10.014;2023-04-24T09:40:17;5.47;;;5.00;;
29362;SDS011;16349;53.672;10.014;2023-04-24T09:42:45;5.93;;;5.50;;
29362;SDS011;16349;53.672;10.014;2023-04-24T09:45:17;5.70;;;5.20;;
29362;SDS011;16349;53.672;10.014;2023-04-24T09:47:44;5.20;;;4.80;;
29362;SDS011;16349;53.672;10.014;2023-04-24T09:50:12;5.43;;;4.57;;
29362;SDS011;16349;53.672;10.014;2023-04-24T09:52:40;4.33;;;4.03;;
29362;SDS011;16349;53.672;10.014;2023-04-24T09:55:12;4.73;;;4.43;;
29362;SDS011;16349;53.672;10.014;2023-04-24T09:57:47;4.93;;;4.53;;
29362;SDS011;16349;53.672;10.014;2023-04-24T10:00:21;4.50;;;4.20;;
29362;SDS011;16349;53.672;10.014;2023-04-24T10:02:50;5.90;;;5.40;;
29362;SDS011;16349;53.672;10.014;2023-04-24T10:05:24;5.30;;;4.80;;
29362;SDS011;16349;53.672;10.014;2023-04-24T10:07:56;6.57;;;5.77;;
29362;SDS011;16349;53.672;10.014;2023-04-24T10:10:25;6.77;;;5.00;;
29362;SDS011;16349;53.672;10.014;2023-04-24T10:12:52;5.20;;;4.70;;
29362;SDS011;16349;53.672;10.014;2023-04-24T10:15:19;5.83;;;5.13;;
29362;SDS011;16349;53.672;10.014;2023-04-24T10:17:48;6.73;;;6.03;;
29362;SDS011;16349;53.672;10.014;2023-04-24T10:20:21;5.70;;;5.20;;
29362;SDS011;16349;53.672;10.014;2023-04-24T10:22:50;6.17;;;5.50;;
29362;SDS011;16349;53.672;10.014;2023-04-24T10:25:18;6.70;;;6.10;;
29362;SDS011;16349;53.672;10.014;2023-04-24T10:27:48;6.50;;;5.67;;
29362;SDS011;16349;53.672;10.014;2023-04-24T10:30:17;7.90;;;6.07;;
29362;SDS011;16349;53.672;10.014;2023-04-24T10:32:44;6.90;;;6.30;;
29362;SDS011;16349;53.672;10.014;2023-04-24T10:35:12;6.87;;;5.97;;
29362;SDS011;16349;53.672;10.014;2023-04-24T10:37:42;6.67;;;6.07;;
29362;SDS011;16349;53.672;10.014;2023-04-24T10:40:11;8.03;;;6.13;;
29362;SDS011;16349;53.672;10.014;2023-04-24T10:42:43;8.00;;;7.10;;
29362;SDS011;16349;53.672;10.014;2023-04-24T10:45:18;7.47;;;6.73;;
29362;SDS011;16349;53.672;10.014;2023-04-24T10:47:53;8.70;;;7.00;;
29362;SDS011;16349;53.672;10.014;2023-04-24T10:50:24;9.63;;;7.87;;
29362;SDS011;16349;53.672;10.014;2023-04-24T10:52:52;11.43;;;7.30;;
29362;SDS011;16349;53.672;10.014;2023-04-24T10:55:39;8.30;;;7.40;;
29362;SDS011;16349;53.672;10.014;2023-04-24T10:58:08;8.93;;;7.13;;
29362;SDS011;16349;53.672;10.014;2023-04-24T11:00:36;9.63;;;7.87;;
29362;SDS011;16349;53.672;10.014;2023-04-24T11:03:04;9.50;;;7.30;;
29362;SDS011;16349;53.672;10.014;2023-04-24T11:08:23;8.50;;;7.73;;
29362;SDS011;16349;53.672;10.014;2023-04-24T11:10:56;9.47;;;8.40;;
29362;SDS011;16349;53.672;10.014;2023-04-24T11:13:27;8.40;;;7.60;;
29362;SDS011;16349;53.672;10.014;2023-04-24T11:16:15;9.63;;;8.00;;
29362;SDS011;16349;53.672;10.014;2023-04-24T11:18:50;8.53;;;7.73;;
29362;SDS011;16349;53.672;10.014;2023-04-24T11:21:20;8.93;;;7.43;;
29362;SDS011;16349;53.672;10.014;2023-04-24T11:23:48;8.30;;;7.50;;
29362;SDS011;16349;53.672;10.014;2023-04-24T11:26:17;7.70;;;6.90;;
29362;SDS011;16349;53.672;10.014;2023-04-24T11:28:47;8.50;;;7.10;;
29362;SDS011;16349;53.672;10.014;2023-04-24T11:34:05;8.50;;;7.70;;
29362;SDS011;16349;53.672;10.014;2023-04-24T11:36:36;8.83;;;7.53;;
29362;SDS011;16349;53.672;10.014;2023-04-24T11:39:03;8.83;;;7.93;;
29362;SDS011;16349;53.672;10.014;2023-04-24T11:41:31;7.03;;;6.43;;
29362;SDS011;16349;53.672;10.014;2023-04-24T11:43:59;8.93;;;6.60;;
29362;SDS011;16349;53.672;10.014;2023-04-24T11:46:27;8.27;;;7.23;;
29362;SDS011;16349;53.672;10.014;2023-04-24T11:48:55;7.37;;;6.67;;
29362;SDS011;16349;53.672;10.014;2023-04-24T11:51:22;7.33;;;6.63;;
29362;SDS011;16349;53.672;10.014;2023-04-24T11:53:50;7.40;;;6.77;;
29362;SDS011;16349;53.672;10.014;2023-04-24T11:56:17;7.70;;;7.03;;
29362;SDS011;16349;53.672;10.014;2023-04-24T11:58:46;7.53;;;6.93;;
29362;SDS011;16349;53.672;10.014;2023-04-24T12:01:15;7.60;;;6.90;;
29362;SDS011;16349;53.672;10.014;2023-04-24T12:03:43;8.47;;;7.67;;
29362;SDS011;16349;53.672;10.014;2023-04-24T12:06:15;7.93;;;7.10;;
29362;SDS011;16349;53.672;10.014;2023-04-24T12:08:42;8.33;;;6.70;;
29362;SDS011;16349;53.672;10.014;2023-04-24T12:11:32;8.27;;;7.53;;
29362;SDS011;16349;53.672;10.014;2023-04-24T12:14:09;9.47;;;7.60;;
29362;SDS011;16349;53.672;10.014;2023-04-24T12:16:39;8.90;;;7.03;;
29362;SDS011;16349;53.672;10.014;2023-04-24T12:19:05;6.83;;;6.20;;
29362;SDS011;16349;53.672;10.014;2023-04-24T12:21:32;7.07;;;6.47;;
29362;SDS011;16349;53.672;10.014;2023-04-24T12:23:59;7.10;;;6.40;;
29362;SDS011;16349;53.672;10.014;2023-04-24T12:26:27;6.40;;;5.80;;
29362;SDS011;16349;53.672;10.014;2023-04-24T12:28:54;7.67;;;6.10;;
29362;SDS011;16349;53.672;10.014;2023-04-24T12:31:21;6.30;;;5.53;;
29362;SDS011;16349;53.672;10.014;2023-04-24T12:33:50;7.03;;;5.47;;
29362;SDS011;16349;53.672;10.014;2023-04-24T12:36:17;6.40;;;5.70;;
29362;SDS011;16349;53.672;10.014;2023-04-24T12:38:47;7.07;;;5.67;;
29362;SDS011;16349;53.672;10.014;2023-04-24T12:41:19;7.27;;;5.87;;
29362;SDS011;16349;53.672;10.014;2023-04-24T12:43:52;5.47;;;5.07;;
29362;SDS011;16349;53.672;10.014;2023-04-24T12:46:20;6.83;;;6.13;;
29362;SDS011;16349;53.672;10.014;2023-04-24T12:48:47;6.40;;;5.73;;
29362;SDS011;16349;53.672;10.014;2023-04-24T12:51:15;5.93;;;5.43;;
29362;SDS011;16349;53.672;10.014;2023-04-24T12:53:41;6.30;;;5.70;;
29362;SDS011;16349;53.672;10.014;2023-04-24T12:56:08;5.53;;;5.13;;
29362;SDS011;16349;53.672;10.014;2023-04-24T12:58:35;5.30;;;4.90;;
29362;SDS011;16349;53.672;10.014;2023-04-24T13:01:02;5.70;;;5.30;;
29362;SDS011;16349;53.672;10.014;2023-04-24T13:03:29;6.93;;;5.90;;
29362;SDS011;16349;53.672;10.014;2023-04-24T13:05:56;7.30;;;6.20;;
29362;SDS011;16349;53.672;10.014;2023-04-24T13:08:24;6.23;;;5.67;;
29362;SDS011;16349;53.672;10.014;2023-04-24T13:10:50;6.30;;;5.70;;
29362;SDS011;16349;53.672;10.014;2023-04-24T13:13:19;5.87;;;5.37;;
29362;SDS011;16349;53.672;10.014;2023-04-24T13:15:45;5.40;;;5.00;;
29362;SDS011;16349;53.672;10.014;2023-04-24T13:18:12;5.80;;;5.30;;
29362;SDS011;16349;53.672;10.014;2023-04-24T13:20:39;6.00;;;5.40;;
29362;SDS011;16349;53.672;10.014;2023-04-24T13:23:06;6.30;;;5.70;;
29362;SDS011;16349;53.672;10.014;2023-04-24T13:25:35;5.63;;;5.13;;
29362;SDS011;16349;53.672;10.014;2023-04-24T13:28:04;4.97;;;4.57;;
29362;SDS011;16349;53.672;10.014;2023-04-24T13:30:31;5.03;;;4.63;;
29362;SDS011;16349;53.672;10.014;2023-04-24T13:32:58;5.13;;;4.63;;
29362;SDS011;16349;53.672;10.014;2023-04-24T13:35:25;5.10;;;4.70;;
29362;SDS011;16349;53.672;10.014;2023-04-24T13:37:52;5.03;;;4.63;;
29362;SDS011;16349;53.672;10.014;2023-04-24T13:40:18;4.80;;;4.50;;
29362;SDS011;16349;53.672;10.014;2023-04-24T13:42:47;4.90;;;4.60;;
29362;SDS011;16349;53.672;10.014;2023-04-24T13:45:14;4.90;;;4.50;;
29362;SDS011;16349;53.672;10.014;2023-04-24T13:47:41;5.03;;;4.60;;
29362;SDS011;16349;53.672;10.014;2023-04-24T13:50:08;5.10;;;4.60;;
29362;SDS011;16349;53.672;10.014;2023-04-24T13:52:37;5.10;;;4.70;;
29362;SDS011;16349;53.672;10.014;2023-04-24T13:55:04;4.40;;;4.07;;
29362;SDS011;16349;53.672;10.014;2023-04-24T13:57:32;5.97;;;5.47;;
29362;SDS011;16349;53.672;10.014;2023-04-24T14:00:01;4.83;;;4.43;;
29362;SDS011;16349;53.672;10.014;2023-04-24T14:02:32;6.23;;;5.10;;
29362;SDS011;16349;53.672;10.014;2023-04-24T14:04:59;4.93;;;4.50;;
29362;SDS011;16349;53.672;10.014;2023-04-24T14:07:25;4.87;;;4.43;;
29362;SDS011;16349;53.672;10.014;2023-04-24T14:09:54;6.63;;;5.37;;
29362;SDS011;16349;53.672;10.014;2023-04-24T14:12:20;5.97;;;5.20;;
29362;SDS011;16349;53.672;10.014;2023-04-24T14:14:47;5.23;;;4.80;;
29362;SDS011;16349;53.672;10.014;2023-04-24T14:17:16;5.70;;;5.20;;
29362;SDS011;16349;53.672;10.014;2023-04-24T14:19:42;4.70;;;4.40;;
29362;SDS011;16349;53.672;10.014;2023-04-24T14:22:09;5.93;;;5.33;;
29362;SDS011;16349;53.672;10.014;2023-04-24T14:24:36;5.40;;;4.90;;
29362;SDS011;16349;53.672;10.014;2023-04-24T14:27:02;5.33;;;4.93;;
29362;SDS011;16349;53.672;10.014;2023-04-24T14:29:29;5.13;;;4.63;;
29362;SDS011;16349;53.672;10.014;2023-04-24T14:31:56;5.40;;;5.00;;
29362;SDS011;16349;53.672;10.014;2023-04-24T14:34:24;4.70;;;4.40;;
29362;SDS011;16349;53.672;10.014;2023-04-24T14:36:52;5.17;;;4.80;;
29362;SDS011;16349;53.672;10.014;2023-04-24T14:39:19;5.60;;;5.07;;
29362;SDS011;16349;53.672;10.014;2023-04-24T14:41:46;6.23;;;5.73;;
29362;SDS011;16349;53.672;10.014;2023-04-24T14:44:13;7.63;;;6.93;;
29362;SDS011;16349;53.672;10.014;2023-04-24T14:46:39;8.00;;;7.20;;
29362;SDS011;16349;53.672;10.014;2023-04-24T14:49:07;7.50;;;6.90;;